Terminal Aerodrome Forecast
Issued by NWS

Home | Current Version | Previous Version | Graphics & Text | Print | Product List | Glossary On
Versions: 1 2 3 4 5 6 7 8 9 10 11 12 13 14 15 16 17
653
FTUS43 KIWX 140720 AAA
TAFSBN
TAF AMD
KSBN 140720Z 1407/1506 01011KT P6SM SCT015
      TEMPO 1408/1410 BKN015
     FM141400 03005KT P6SM SCT035 BKN100
     FM141900 24004KT P6SM BKN040=

USA.gov is the U.S. government's official web portal to all federal, state and local government web resources and services.